Time;durP1;ratioP1;P1;durP2;ratioP2;P2;SDS_P1;SDS_P2;PMS_P1;PMS_P2;Temp;Humidity;BMP_temperature;BMP_pressure;BME280_temperature;BME280_humidity;BME280_pressure;Samples;Min_cycle;Max_cycle;Signal;HPM_P1;HPM_P2
2023/08/24 00:01:17;;;;;;;2.45;1.58;;;23.30;63.20;;;;;;4983068;28;20569;-80
2023/08/24 00:03:46;;;;;;;1.90;1.42;;;23.20;63.30;;;;;;4998256;28;20057;-80
2023/08/24 00:06:12;;;;;;;2.37;1.50;;;23.20;63.90;;;;;;4985580;28;20505;-80
2023/08/24 00:08:38;;;;;;;2.33;1.60;;;23.20;63.50;;;;;;4981859;28;20031;-80
2023/08/24 00:11:05;;;;;;;2.47;1.58;;;23.20;63.60;;;;;;4984188;28;20065;-80
2023/08/24 00:13:31;;;;;;;2.15;1.40;;;23.20;63.60;;;;;;4996374;28;20470;-80
2023/08/24 00:15:57;;;;;;;1.80;1.33;;;23.10;63.70;;;;;;4987872;28;20049;-80
2023/08/24 00:18:23;;;;;;;2.53;1.70;;;23.10;63.80;;;;;;4981442;28;20077;-80
2023/08/24 00:20:49;;;;;;;2.72;1.38;;;23.00;63.90;;;;;;4969613;28;20034;-80
2023/08/24 00:23:16;;;;;;;3.40;1.50;;;23.00;64.00;;;;;;4976194;28;20026;-80
2023/08/24 00:25:41;;;;;;;2.47;1.43;;;23.00;64.10;;;;;;4966333;28;20285;-80
2023/08/24 00:28:07;;;;;;;2.60;1.50;;;23.00;64.30;;;;;;4985863;28;20106;-80
2023/08/24 00:30:33;;;;;;;3.00;1.47;;;23.00;64.40;;;;;;4987140;28;20092;-80
2023/08/24 00:32:59;;;;;;;2.15;1.48;;;22.90;64.30;;;;;;4982791;28;20081;-80
2023/08/24 00:35:25;;;;;;;2.17;1.43;;;22.80;64.50;;;;;;4970075;28;20472;-80
2023/08/24 00:37:51;;;;;;;1.90;1.50;;;22.80;64.60;;;;;;4975958;28;20057;-80
2023/08/24 00:40:16;;;;;;;2.50;1.52;;;22.70;64.70;;;;;;4970076;28;20515;-80
2023/08/24 00:42:44;;;;;;;3.53;1.70;;;22.70;64.90;;;;;;4982050;28;20038;-80
2023/08/24 00:45:11;;;;;;;2.70;1.60;;;22.70;65.30;;;;;;4984873;28;20285;-80
2023/08/24 00:47:39;;;;;;;2.42;1.52;;;22.60;65.40;;;;;;4978624;28;20548;-80
2023/08/24 00:50:07;;;;;;;2.53;1.60;;;22.70;65.70;;;;;;4986841;28;20033;-80
2023/08/24 00:52:36;;;;;;;3.40;1.70;;;22.60;65.70;;;;;;4984064;28;20246;-80
2023/08/24 00:55:03;;;;;;;1.90;1.40;;;22.60;65.70;;;;;;4994535;28;20113;-80
2023/08/24 00:57:29;;;;;;;3.00;1.57;;;22.60;65.90;;;;;;4991302;28;20459;-81
2023/08/24 01:00:02;;;;;;;2.95;1.50;;;22.60;66.10;;;;;;4999471;28;20023;-80
2023/08/24 01:02:28;;;;;;;2.70;1.60;;;22.70;66.90;;;;;;4980890;28;20037;-80
2023/08/24 01:04:54;;;;;;;3.17;1.60;;;22.60;66.20;;;;;;4920098;23;20060;-18
2023/08/24 01:07:20;;;;;;;2.05;1.48;;;22.60;66.30;;;;;;4876981;28;20056;-18
2023/08/24 01:09:47;;;;;;;2.85;1.70;;;22.60;66.50;;;;;;4832686;28;20041;-18
2023/08/24 01:12:41;;;;;;;2.15;1.55;;;22.60;66.60;;;;;;4882266;28;20027;-18
2023/08/24 01:15:18;;;;;;;1.93;1.47;;;22.60;67.80;;;;;;4868704;29;20500;-18
2023/08/24 01:17:46;;;;;;;2.70;1.60;;;22.60;67.80;;;;;;4864032;28;20677;-17
2023/08/24 01:20:15;;;;;;;1.98;1.63;;;22.60;66.80;;;;;;4881085;29;20040;-19
2023/08/24 01:23:03;;;;;;;3.25;1.70;;;22.60;67.30;;;;;;4879078;28;20031;-18
2023/08/24 01:25:40;;;;;;;2.63;1.55;;;22.70;67.60;;;;;;4855562;28;20445;-18
2023/08/24 01:28:06;;;;;;;2.97;1.57;;;22.70;68.00;;;;;;4866002;28;20113;-18
2023/08/24 01:30:35;;;;;;;3.38;1.85;;;22.70;67.00;;;;;;4868529;28;20189;-21
2023/08/24 01:33:04;;;;;;;2.72;1.70;;;22.80;67.40;;;;;;4878770;29;20021;-17
2023/08/24 01:35:31;;;;;;;2.30;1.55;;;22.80;67.60;;;;;;4870241;28;20025;-18
2023/08/24 01:38:02;;;;;;;3.15;1.67;;;22.80;67.40;;;;;;4880641;29;20696;-18
2023/08/24 01:40:41;;;;;;;2.33;1.60;;;22.70;67.50;;;;;;4871453;28;20368;-19
2023/08/24 01:43:09;;;;;;;2.50;1.73;;;22.80;68.60;;;;;;4875108;28;20927;-20
2023/08/24 01:45:35;;;;;;;3.33;1.80;;;22.80;67.60;;;;;;4864795;28;20116;-18
2023/08/24 01:48:03;;;;;;;2.77;1.83;;;22.80;67.60;;;;;;4881258;29;20533;-18
2023/08/24 01:50:30;;;;;;;2.65;1.80;;;22.80;67.90;;;;;;4864568;28;20111;-18
2023/08/24 01:52:57;;;;;;;3.08;1.80;;;22.80;67.90;;;;;;4895158;28;20557;-19
2023/08/24 01:55:23;;;;;;;3.28;1.70;;;22.70;67.80;;;;;;4855709;28;20405;-20
2023/08/24 01:57:49;;;;;;;2.58;1.98;;;22.80;68.00;;;;;;4880904;28;20025;-18
2023/08/24 02:00:15;;;;;;;3.03;1.70;;;22.80;68.10;;;;;;4854205;28;20098;-17
2023/08/24 02:02:43;;;;;;;3.17;1.83;;;22.80;68.10;;;;;;4877276;28;20131;-19
2023/08/24 02:05:09;;;;;;;2.95;1.85;;;22.80;68.40;;;;;;4953296;28;20050;-18
2023/08/24 02:07:35;;;;;;;3.22;1.95;;;22.80;68.30;;;;;;4976811;28;20038;-18
2023/08/24 02:10:01;;;;;;;2.53;1.80;;;22.80;68.40;;;;;;4970631;28;20066;-17
2023/08/24 02:12:27;;;;;;;3.43;1.73;;;22.70;68.30;;;;;;4962455;28;20121;-19
2023/08/24 02:14:53;;;;;;;2.45;2.00;;;22.70;68.50;;;;;;4975807;28;20463;-17
2023/08/24 02:17:18;;;;;;;3.83;1.97;;;22.70;68.50;;;;;;4980581;28;20037;-17
2023/08/24 02:19:44;;;;;;;3.23;1.77;;;22.70;68.50;;;;;;4976612;28;20353;-16
2023/08/24 02:22:10;;;;;;;2.63;1.95;;;22.70;68.80;;;;;;4973142;28;20026;-17
2023/08/24 02:24:36;;;;;;;4.47;2.00;;;22.60;68.90;;;;;;4994920;28;20515;-17
2023/08/24 02:27:01;;;;;;;3.42;2.00;;;22.60;69.00;;;;;;4954103;28;20049;-16
2023/08/24 02:29:27;;;;;;;2.83;2.10;;;22.50;69.10;;;;;;4978006;28;20783;-17
2023/08/24 02:31:53;;;;;;;3.20;2.30;;;22.50;69.30;;;;;;4963638;28;20392;-15
2023/08/24 02:34:19;;;;;;;3.40;2.00;;;22.40;69.30;;;;;;4976429;28;20045;-17
2023/08/24 02:36:45;;;;;;;3.37;2.10;;;22.30;69.30;;;;;;4963552;28;20034;-16
2023/08/24 02:39:11;;;;;;;3.92;2.08;;;22.30;69.60;;;;;;4974416;28;20409;-16
2023/08/24 02:41:37;;;;;;;2.97;2.13;;;22.20;70.00;;;;;;4959447;28;20034;-17
2023/08/24 02:44:03;;;;;;;3.27;1.90;;;22.10;69.90;;;;;;4952579;28;20961;-17
2023/08/24 02:46:29;;;;;;;3.35;2.25;;;22.10;70.10;;;;;;4980998;28;20034;-16
2023/08/24 02:48:55;;;;;;;4.25;2.15;;;22.10;70.30;;;;;;4958169;28;20034;-15
2023/08/24 02:51:24;;;;;;;3.90;2.30;;;22.00;70.50;;;;;;4979117;28;20081;-17
2023/08/24 02:53:50;;;;;;;3.05;2.05;;;22.00;71.30;;;;;;4961855;28;20034;-15
2023/08/24 02:56:16;;;;;;;3.33;2.30;;;22.00;70.90;;;;;;4975285;28;20490;-16
2023/08/24 02:58:41;;;;;;;3.63;2.10;;;22.20;72.00;;;;;;4940622;28;20104;-16
2023/08/24 03:01:07;;;;;;;4.43;2.30;;;22.00;71.10;;;;;;4973111;28;20092;-17
2023/08/24 03:03:34;;;;;;;3.53;2.30;;;22.00;71.30;;;;;;4961127;28;20093;-16
2023/08/24 03:06:04;;;;;;;3.47;2.10;;;22.00;71.50;;;;;;4880413;28;20052;-17
2023/08/24 03:08:31;;;;;;;2.92;1.95;;;22.00;72.00;;;;;;4886387;28;20496;-17
2023/08/24 03:11:01;;;;;;;2.93;2.20;;;21.90;71.50;;;;;;4899197;28;20059;-18
2023/08/24 03:13:27;;;;;;;3.80;2.10;;;21.90;71.60;;;;;;4941185;28;20040;-17
2023/08/24 03:15:54;;;;;;;3.67;2.30;;;21.90;71.80;;;;;;4898515;28;20028;-16
2023/08/24 03:18:20;;;;;;;3.60;2.25;;;21.90;71.90;;;;;;4886976;28;20118;-18
2023/08/24 03:20:48;;;;;;;4.18;2.17;;;21.90;72.00;;;;;;4895714;28;20036;-16
2023/08/24 03:23:14;;;;;;;2.87;2.30;;;21.90;72.20;;;;;;4896617;28;20050;-16
2023/08/24 03:25:41;;;;;;;3.25;2.20;;;21.90;72.00;;;;;;4883780;28;20024;-17
2023/08/24 03:28:08;;;;;;;3.33;2.00;;;21.90;72.20;;;;;;4893952;28;20710;-17
2023/08/24 03:30:39;;;;;;;2.97;1.98;;;21.90;72.00;;;;;;4877268;28;20032;-17
2023/08/24 03:33:05;;;;;;;4.85;2.50;;;21.80;72.60;;;;;;4882699;28;20678;-16
2023/08/24 03:35:31;;;;;;;3.33;2.17;;;21.80;71.80;;;;;;4977921;28;20030;-17
2023/08/24 03:37:57;;;;;;;3.88;2.20;;;21.80;71.80;;;;;;4895942;28;20032;-16
2023/08/24 03:40:23;;;;;;;3.17;2.15;;;21.70;71.80;;;;;;4946621;28;20035;-17
2023/08/24 03:42:49;;;;;;;3.40;2.23;;;21.70;71.90;;;;;;4895353;28;20033;-16
2023/08/24 03:45:14;;;;;;;2.50;2.10;;;21.60;71.90;;;;;;4874724;28;20443;-16
2023/08/24 03:47:40;;;;;;;2.97;2.05;;;21.60;72.00;;;;;;4978378;28;20074;-16
2023/08/24 03:50:06;;;;;;;3.30;2.20;;;21.60;72.10;;;;;;4881996;28;20561;-16
2023/08/24 03:52:33;;;;;;;3.08;2.28;;;21.60;72.20;;;;;;4946191;28;20518;-17
2023/08/24 03:54:58;;;;;;;3.53;2.13;;;21.50;72.20;;;;;;4892028;28;20029;-16
2023/08/24 03:57:24;;;;;;;3.80;2.40;;;21.50;72.30;;;;;;4856215;28;20040;-16
2023/08/24 03:59:50;;;;;;;3.70;2.27;;;21.40;72.30;;;;;;4884758;28;20293;-16
2023/08/24 04:02:16;;;;;;;3.25;2.20;;;21.40;72.40;;;;;;4887193;28;20032;-16
2023/08/24 04:04:43;;;;;;;3.70;2.30;;;21.40;72.60;;;;;;4886210;28;20700;-16
2023/08/24 04:07:09;;;;;;;4.07;2.20;;;21.30;72.60;;;;;;4894125;28;20234;-17
2023/08/24 04:09:35;;;;;;;3.72;2.13;;;21.30;72.70;;;;;;4883756;28;20082;-18
2023/08/24 04:12:00;;;;;;;3.53;2.23;;;21.20;72.70;;;;;;4884420;28;20059;-16
2023/08/24 04:14:26;;;;;;;3.10;2.23;;;21.20;72.90;;;;;;4898087;29;20307;-17
2023/08/24 04:16:52;;;;;;;3.70;2.43;;;21.20;72.90;;;;;;4872896;28;20029;-16
2023/08/24 04:19:18;;;;;;;4.10;2.30;;;21.20;73.10;;;;;;4887787;28;20407;-17
2023/08/24 04:21:43;;;;;;;3.33;2.38;;;21.10;73.10;;;;;;4930757;28;20109;-16
2023/08/24 04:24:09;;;;;;;4.53;2.23;;;21.10;73.20;;;;;;4891367;28;20529;-17
2023/08/24 04:26:36;;;;;;;3.85;2.30;;;21.10;73.20;;;;;;4898232;28;20048;-16
2023/08/24 04:29:02;;;;;;;3.30;2.40;;;21.10;73.40;;;;;;4879045;28;20472;-17
2023/08/24 04:31:28;;;;;;;5.37;2.40;;;21.00;73.40;;;;;;4941454;28;20046;-17
2023/08/24 04:33:53;;;;;;;4.17;2.43;;;21.00;73.50;;;;;;4894739;29;20284;-16
2023/08/24 04:36:19;;;;;;;3.37;2.40;;;21.00;73.60;;;;;;4878149;28;20032;-16
2023/08/24 04:38:45;;;;;;;4.27;2.20;;;21.00;73.70;;;;;;4880273;28;20798;-16
2023/08/24 04:41:12;;;;;;;3.07;2.20;;;21.00;73.70;;;;;;4895596;28;20655;-17
2023/08/24 04:43:38;;;;;;;3.85;2.35;;;21.00;73.90;;;;;;4881736;28;20082;-14
2023/08/24 04:46:03;;;;;;;4.82;2.80;;;20.90;73.80;;;;;;4875285;28;20043;-14
2023/08/24 04:48:35;;;;;;;4.10;2.60;;;20.90;74.00;;;;;;4938865;28;20451;-14
2023/08/24 04:51:01;;;;;;;4.17;2.77;;;20.90;74.50;;;;;;4871847;28;20390;-17
2023/08/24 04:53:27;;;;;;;3.15;2.42;;;20.90;74.40;;;;;;4908874;28;20485;-17
2023/08/24 04:55:53;;;;;;;2.90;2.15;;;20.90;74.40;;;;;;4893056;28;20071;-16
2023/08/24 04:58:19;;;;;;;3.33;2.25;;;20.80;74.40;;;;;;4886878;28;20150;-17
2023/08/24 05:00:45;;;;;;;3.87;2.50;;;20.80;74.40;;;;;;4899052;29;20552;-16
2023/08/24 05:03:11;;;;;;;3.22;2.28;;;20.80;74.50;;;;;;4943695;28;20039;-16
2023/08/24 05:05:37;;;;;;;3.57;2.50;;;20.80;74.50;;;;;;4883702;28;20126;-17
2023/08/24 05:08:10;;;;;;;3.92;2.40;;;19.90;75.80;;;;;;4890015;28;20106;-18
2023/08/24 05:10:36;;;;;;;3.30;2.35;;;20.80;74.90;;;;;;4887515;28;20032;-17
2023/08/24 05:13:01;;;;;;;3.42;2.40;;;20.80;74.90;;;;;;4884491;28;20130;-18
2023/08/24 05:15:27;;;;;;;4.40;2.77;;;20.80;74.90;;;;;;4882111;28;20107;-17
2023/08/24 05:17:55;;;;;;;3.53;2.55;;;20.80;75.00;;;;;;4879227;28;20035;-19
2023/08/24 05:20:22;;;;;;;3.80;2.72;;;20.80;75.10;;;;;;4898428;28;20608;-16
2023/08/24 05:22:48;;;;;;;4.55;2.55;;;20.80;75.20;;;;;;4877437;28;20032;-20
2023/08/24 05:25:13;;;;;;;4.30;2.63;;;20.80;75.30;;;;;;4954230;28;20036;-16
2023/08/24 05:27:39;;;;;;;5.88;3.10;;;20.80;75.30;;;;;;4960810;28;20276;-17
2023/08/24 05:30:06;;;;;;;3.58;2.58;;;20.80;75.50;;;;;;4886341;28;20540;-18
2023/08/24 05:32:32;;;;;;;3.55;2.33;;;20.80;75.60;;;;;;4895753;29;20572;-17
2023/08/24 05:34:58;;;;;;;4.87;2.33;;;20.80;75.60;;;;;;4884390;28;20119;-19
2023/08/24 05:37:24;;;;;;;3.80;2.42;;;20.80;75.70;;;;;;4872980;28;20024;-16
2023/08/24 05:39:50;;;;;;;4.10;2.42;;;20.80;76.00;;;;;;4968676;28;20033;-18
2023/08/24 05:42:16;;;;;;;4.20;2.60;;;20.80;77.90;;;;;;4899895;29;20586;-16
2023/08/24 05:44:41;;;;;;;3.72;2.65;;;20.90;76.30;;;;;;4962425;28;20254;-17
2023/08/24 05:47:07;;;;;;;4.32;2.63;;;20.90;76.30;;;;;;4900402;28;20028;-17
2023/08/24 05:49:33;;;;;;;5.53;3.17;;;20.90;76.50;;;;;;4872153;28;20612;-17
2023/08/24 05:51:59;;;;;;;4.25;2.80;;;20.90;76.50;;;;;;4894578;28;20032;-17
2023/08/24 05:54:24;;;;;;;4.00;2.60;;;21.00;76.70;;;;;;4864888;28;20028;-16
2023/08/24 05:56:50;;;;;;;4.30;3.05;;;21.10;78.00;;;;;;4899058;28;20036;-18
2023/08/24 05:59:16;;;;;;;4.83;2.60;;;21.00;76.70;;;;;;4950260;28;20039;-17
2023/08/24 06:01:42;;;;;;;5.90;2.90;;;21.10;76.80;;;;;;4898536;28;20564;-17
2023/08/24 06:04:11;;;;;;;4.10;2.70;;;21.10;77.00;;;;;;4979011;28;20068;-17
2023/08/24 06:06:37;;;;;;;4.38;2.97;;;21.10;77.60;;;;;;4943911;28;20234;-20
2023/08/24 06:09:06;;;;;;;4.43;2.85;;;21.10;77.20;;;;;;4950364;28;20043;-17
2023/08/24 06:11:35;;;;;;;3.67;2.40;;;21.20;77.20;;;;;;4887531;28;20335;-17
2023/08/24 06:14:01;;;;;;;4.03;2.65;;;21.20;77.50;;;;;;4951979;28;20063;-17
2023/08/24 06:16:28;;;;;;;3.70;2.60;;;21.30;77.20;;;;;;4881024;28;20625;-17
2023/08/24 06:18:54;;;;;;;4.68;2.70;;;21.30;77.30;;;;;;4949408;28;20032;-17
2023/08/24 06:21:20;;;;;;;3.72;2.63;;;21.30;77.30;;;;;;4879903;28;20047;-17
2023/08/24 06:23:47;;;;;;;4.67;2.70;;;21.30;77.50;;;;;;4981164;28;20036;-18
2023/08/24 06:26:13;;;;;;;4.43;2.78;;;21.40;77.60;;;;;;4873025;28;20027;-17
2023/08/24 06:28:39;;;;;;;4.35;2.45;;;21.40;77.70;;;;;;4898353;29;20353;-18
2023/08/24 06:31:07;;;;;;;3.60;2.42;;;21.40;77.70;;;;;;4886145;28;20119;-18
2023/08/24 06:33:34;;;;;;;3.50;2.67;;;21.50;78.00;;;;;;4960304;28;20036;-17
2023/08/24 06:36:01;;;;;;;4.05;2.78;;;21.50;78.20;;;;;;4932418;28;20319;-17
2023/08/24 06:38:26;;;;;;;3.95;2.65;;;21.60;78.40;;;;;;4943511;28;20639;-17
2023/08/24 06:40:52;;;;;;;3.90;2.83;;;21.70;78.60;;;;;;4885833;28;20040;-17
2023/08/24 06:43:18;;;;;;;3.50;2.57;;;21.80;78.80;;;;;;4883841;28;20404;-17
2023/08/24 06:45:44;;;;;;;3.80;2.70;;;21.80;79.00;;;;;;4897483;28;20036;-19
2023/08/24 06:48:10;;;;;;;4.30;2.58;;;22.00;79.30;;;;;;4948991;28;20087;-17
2023/08/24 06:50:36;;;;;;;4.47;2.77;;;22.10;79.30;;;;;;4883272;28;20265;-18
2023/08/24 06:53:03;;;;;;;4.07;2.50;;;22.20;79.30;;;;;;4895019;28;20020;-19
2023/08/24 06:55:29;;;;;;;3.88;2.78;;;22.30;79.30;;;;;;4877224;28;20107;-18
2023/08/24 06:57:55;;;;;;;4.50;2.80;;;22.40;79.40;;;;;;4885405;28;20111;-18
2023/08/24 07:00:21;;;;;;;4.38;2.95;;;22.50;79.30;;;;;;4893936;28;20036;-17
2023/08/24 07:02:48;;;;;;;4.53;2.92;;;22.60;79.20;;;;;;4885493;28;20731;-18
2023/08/24 07:05:14;;;;;;;4.13;2.60;;;22.70;79.20;;;;;;4891172;28;20322;-17
2023/08/24 07:07:43;;;;;;;4.73;2.90;;;22.80;79.20;;;;;;4947369;28;20032;-19
2023/08/24 07:10:09;;;;;;;5.53;2.75;;;22.90;79.30;;;;;;4963747;28;20105;-17
2023/08/24 07:12:35;;;;;;;3.88;2.72;;;23.00;79.40;;;;;;4879844;28;20250;-18
2023/08/24 07:15:01;;;;;;;4.30;2.85;;;23.20;79.50;;;;;;4895681;28;20036;-18
2023/08/24 07:17:27;;;;;;;4.07;2.78;;;23.20;79.70;;;;;;4921731;28;20078;-19
2023/08/24 07:19:52;;;;;;;3.77;2.77;;;23.40;79.90;;;;;;4896128;29;20036;-17
2023/08/24 07:22:19;;;;;;;5.35;2.85;;;23.50;79.90;;;;;;4873424;28;20481;-19
2023/08/24 07:24:45;;;;;;;4.80;3.00;;;23.70;80.00;;;;;;4898092;28;20039;-18
2023/08/24 07:27:11;;;;;;;4.63;2.80;;;23.80;80.00;;;;;;4891200;28;20028;-19
2023/08/24 07:29:36;;;;;;;4.07;2.75;;;24.00;80.10;;;;;;4899738;28;20035;-18
2023/08/24 07:32:03;;;;;;;4.63;2.90;;;24.10;79.90;;;;;;4882304;28;20733;-19
2023/08/24 07:34:29;;;;;;;3.95;2.58;;;24.20;79.80;;;;;;4960872;28;20040;-18
2023/08/24 07:36:55;;;;;;;3.17;2.50;;;24.30;79.60;;;;;;4944457;28;20544;-17
2023/08/24 07:39:20;;;;;;;5.10;3.10;;;24.50;79.50;;;;;;4898157;28;20032;-20
2023/08/24 07:41:47;;;;;;;3.95;2.63;;;24.50;79.20;;;;;;4897037;29;20028;-17
2023/08/24 07:44:12;;;;;;;4.70;2.67;;;24.60;79.00;;;;;;4890036;28;20059;-18
2023/08/24 07:46:41;;;;;;;3.75;2.50;;;24.60;78.80;;;;;;4953068;28;20693;-18
2023/08/24 07:49:07;;;;;;;4.50;2.70;;;24.70;79.00;;;;;;4887211;28;20032;-19
2023/08/24 07:51:34;;;;;;;4.40;2.78;;;24.70;78.80;;;;;;4898191;28;20121;-18
2023/08/24 07:54:00;;;;;;;4.32;2.90;;;24.70;78.70;;;;;;4877542;28;20028;-18
2023/08/24 07:56:26;;;;;;;3.42;2.58;;;24.80;78.70;;;;;;4875173;28;20336;-19
2023/08/24 07:58:51;;;;;;;3.97;2.60;;;24.80;78.70;;;;;;4887744;28;20031;-17
2023/08/24 08:01:17;;;;;;;4.18;2.55;;;24.90;78.60;;;;;;4894926;28;20090;-19
2023/08/24 08:03:43;;;;;;;6.67;2.80;;;24.90;78.40;;;;;;4855462;28;20094;-18
2023/08/24 08:06:08;;;;;;;4.43;2.90;;;25.00;78.40;;;;;;4895932;28;20257;-19
2023/08/24 08:08:34;;;;;;;3.50;2.60;;;25.00;78.20;;;;;;4880662;28;20543;-20
2023/08/24 08:11:01;;;;;;;3.47;2.42;;;25.10;78.30;;;;;;4879893;28;20408;-19
2023/08/24 08:13:29;;;;;;;4.82;2.95;;;25.10;78.40;;;;;;4898124;29;20374;-18
2023/08/24 08:16:03;;;;;;;3.87;2.77;;;25.10;78.30;;;;;;4879329;29;20078;-18
2023/08/24 08:18:29;;;;;;;4.13;2.78;;;25.20;78.50;;;;;;4885390;28;20489;-18
2023/08/24 08:20:55;;;;;;;4.10;2.70;;;25.20;78.30;;;;;;4950005;28;20041;-19
2023/08/24 08:23:20;;;;;;;4.47;2.53;;;25.30;78.40;;;;;;4877752;28;20062;-19
2023/08/24 08:25:46;;;;;;;3.97;2.50;;;25.30;78.50;;;;;;4897555;29;20119;-18
2023/08/24 08:28:12;;;;;;;3.85;2.70;;;25.30;78.60;;;;;;4895784;28;20204;-18
2023/08/24 08:30:38;;;;;;;4.10;2.83;;;25.30;78.60;;;;;;4947937;28;20704;-17
2023/08/24 08:33:04;;;;;;;3.22;2.55;;;25.40;78.60;;;;;;4892914;28;20221;-21
2023/08/24 08:35:30;;;;;;;4.15;2.90;;;25.40;78.40;;;;;;4882943;28;20028;-18
2023/08/24 08:37:56;;;;;;;3.43;2.60;;;25.50;78.50;;;;;;4875727;28;20058;-21
2023/08/24 08:40:28;;;;;;;3.60;2.60;;;25.60;78.50;;;;;;4854403;28;20024;-22
2023/08/24 08:42:57;;;;;;;4.63;2.72;;;25.60;78.60;;;;;;4893577;29;20636;-18
2023/08/24 08:45:25;;;;;;;4.07;2.60;;;25.70;78.60;;;;;;4883012;28;20028;-17
2023/08/24 08:47:53;;;;;;;4.57;2.53;;;25.70;78.50;;;;;;4894844;28;20115;-18
2023/08/24 08:50:19;;;;;;;5.03;2.80;;;25.70;78.30;;;;;;4882355;28;20056;-16
2023/08/24 08:52:45;;;;;;;5.18;3.10;;;25.70;78.30;;;;;;4977290;28;20039;-18
2023/08/24 08:55:11;;;;;;;4.30;2.80;;;25.80;78.40;;;;;;4897343;28;20039;-16
2023/08/24 08:57:39;;;;;;;4.83;2.77;;;25.90;78.50;;;;;;4978913;28;20028;-15
2023/08/24 09:00:09;;;;;;;5.30;2.70;;;25.90;78.40;;;;;;4965171;28;20030;-17
2023/08/24 09:02:35;;;;;;;4.57;2.60;;;26.00;78.50;;;;;;4930139;28;20033;-16
2023/08/24 09:05:04;;;;;;;5.22;3.00;;;26.00;78.60;;;;;;4942717;28;20055;-15
2023/08/24 09:07:30;;;;;;;3.97;2.92;;;26.10;78.50;;;;;;4924938;28;20119;-17
2023/08/24 09:09:55;;;;;;;5.00;2.77;;;26.20;78.50;;;;;;4960655;28;20767;-16
2023/08/24 09:12:21;;;;;;;4.35;2.92;;;26.20;78.60;;;;;;4870167;28;20029;-17
2023/08/24 09:14:47;;;;;;;3.97;2.65;;;26.30;78.60;;;;;;4895026;28;20154;-15
2023/08/24 09:17:21;;;;;;;4.03;2.90;;;26.40;78.50;;;;;;4864691;28;20527;-17
2023/08/24 09:19:51;;;;;;;4.88;2.70;;;26.40;78.20;;;;;;4893964;28;20628;-16
2023/08/24 09:22:17;;;;;;;4.25;2.70;;;26.50;78.00;;;;;;4881767;28;20366;-17
2023/08/24 09:24:44;;;;;;;5.13;2.60;;;26.60;77.30;;;;;;4943177;28;20156;-16
2023/08/24 09:27:17;;;;;;;3.00;2.40;;;26.50;77.50;;;;;;4935059;28;20031;-15
2023/08/24 09:29:47;;;;;;;4.60;2.58;;;26.60;77.30;;;;;;4891915;28;20226;-16
2023/08/24 09:32:12;;;;;;;4.50;2.63;;;26.50;76.90;;;;;;4894877;28;20032;-17
2023/08/24 09:34:38;;;;;;;3.07;2.40;;;26.50;76.70;;;;;;4941715;28;20036;-15
2023/08/24 09:37:12;;;;;;;3.90;2.58;;;26.40;76.40;;;;;;4882076;28;20508;-15
2023/08/24 09:39:37;;;;;;;3.45;2.47;;;26.30;76.40;;;;;;4859995;28;20223;-15
2023/08/24 09:42:04;;;;;;;3.93;2.43;;;26.30;76.40;;;;;;4881699;28;20079;-15
2023/08/24 09:44:30;;;;;;;5.78;2.42;;;26.20;76.50;;;;;;4899930;28;20032;-18
2023/08/24 09:46:56;;;;;;;4.80;2.53;;;26.20;76.50;;;;;;4940018;28;20055;-18
2023/08/24 09:49:21;;;;;;;4.00;2.57;;;26.10;76.50;;;;;;4888391;28;20283;-17
2023/08/24 09:51:48;;;;;;;4.00;2.70;;;26.00;76.40;;;;;;4886060;28;20868;-19
2023/08/24 09:54:18;;;;;;;4.20;2.80;;;25.90;76.30;;;;;;4890604;28;20433;-18
2023/08/24 09:56:47;;;;;;;3.50;2.55;;;25.80;76.30;;;;;;4898905;28;20031;-18
2023/08/24 09:59:24;;;;;;;3.05;2.67;;;25.70;76.20;;;;;;4885285;28;20367;-17
2023/08/24 10:01:50;;;;;;;3.58;2.70;;;25.60;76.50;;;;;;4891959;28;20020;-17
2023/08/24 10:04:28;;;;;;;3.83;2.57;;;25.40;76.20;;;;;;4887568;28;20235;-18
2023/08/24 10:07:03;;;;;;;4.70;2.60;;;25.30;76.90;;;;;;4893143;28;20261;-21
2023/08/24 10:09:43;;;;;;;4.50;2.70;;;25.20;77.00;;;;;;4893454;29;20039;-18
2023/08/24 10:12:10;;;;;;;4.22;2.45;;;25.10;77.00;;;;;;4899387;28;20718;-19
2023/08/24 10:15:03;;;;;;;5.00;2.38;;;25.00;76.40;;;;;;4879621;28;20145;-18
2023/08/24 10:17:31;;;;;;;4.03;1.90;;;24.90;77.70;;;;;;4979925;28;20021;-18
2023/08/24 10:20:01;;;;;;;3.40;2.08;;;24.80;76.80;;;;;;4881625;28;20032;-18
2023/08/24 10:22:28;;;;;;;2.75;2.03;;;24.70;76.90;;;;;;4967742;28;20090;-17
2023/08/24 10:24:55;;;;;;;2.97;2.00;;;24.70;76.90;;;;;;4957335;28;20876;-17
2023/08/24 10:27:23;;;;;;;3.35;2.25;;;24.70;76.90;;;;;;4956611;28;20432;-18
2023/08/24 10:29:49;;;;;;;2.50;1.77;;;24.60;77.10;;;;;;4879693;28;20029;-17
2023/08/24 10:32:15;;;;;;;3.92;1.90;;;24.50;77.00;;;;;;4892985;28;20055;-18
2023/08/24 10:34:41;;;;;;;3.40;1.98;;;24.50;77.10;;;;;;4883131;28;20604;-19
2023/08/24 10:37:11;;;;;;;2.90;1.80;;;24.40;77.10;;;;;;4895232;28;20107;-17
2023/08/24 10:39:43;;;;;;;2.97;2.00;;;24.30;77.70;;;;;;4855456;28;20044;-17
2023/08/24 10:42:11;;;;;;;3.40;1.90;;;24.20;77.50;;;;;;4895664;29;20095;-16
2023/08/24 10:44:39;;;;;;;4.25;1.70;;;24.20;78.40;;;;;;4867655;28;20495;-16
2023/08/24 10:47:26;;;;;;;2.58;1.73;;;24.00;77.50;;;;;;4960341;28;20249;-15
2023/08/24 10:49:55;;;;;;;3.00;1.70;;;24.00;78.70;;;;;;4871629;28;20421;-15
2023/08/24 10:52:36;;;;;;;2.75;1.70;;;23.80;79.60;;;;;;4896185;29;20425;-16
2023/08/24 10:55:03;;;;;;;2.47;1.73;;;23.70;80.60;;;;;;4876577;28;20423;-15
2023/08/24 10:57:43;;;;;;;3.25;1.90;;;23.70;81.20;;;;;;4905766;28;20366;-16
2023/08/24 11:00:12;;;;;;;3.50;1.90;;;23.70;83.20;;;;;;4944512;28;20175;-15
2023/08/24 11:02:46;;;;;;;3.40;1.93;;;23.70;83.20;;;;;;4964728;28;20047;-16
2023/08/24 11:05:33;;;;;;;2.60;1.77;;;23.70;83.90;;;;;;4959685;28;20360;-13
2023/08/24 11:08:03;;;;;;;3.22;1.70;;;23.70;85.40;;;;;;4882837;28;20146;-13
2023/08/24 11:10:34;;;;;;;3.47;1.92;;;23.80;85.70;;;;;;4883975;28;20607;-14
2023/08/24 11:13:14;;;;;;;2.83;2.00;;;23.90;87.20;;;;;;4951823;28;20059;-14
2023/08/24 11:15:44;;;;;;;3.60;2.07;;;24.20;88.80;;;;;;4876369;28;20440;-15
2023/08/24 11:18:18;;;;;;;3.38;2.25;;;24.50;90.00;;;;;;4980488;28;20044;-13
2023/08/24 11:20:46;;;;;;;4.55;2.10;;;24.80;90.40;;;;;;4880890;28;20032;-14
2023/08/24 11:23:12;;;;;;;3.28;2.10;;;25.10;90.50;;;;;;4898234;29;20063;-14
2023/08/24 11:25:38;;;;;;;3.83;2.17;;;25.50;90.50;;;;;;4878259;28;20119;-15
2023/08/24 11:28:05;;;;;;;3.50;2.03;;;25.80;90.30;;;;;;4898543;28;20086;-15
2023/08/24 11:30:32;;;;;;;3.08;2.00;;;26.00;89.90;;;;;;4885471;28;20075;-15
2023/08/24 11:32:59;;;;;;;3.85;2.30;;;26.20;89.10;;;;;;4943535;28;20525;-14
2023/08/24 11:35:25;;;;;;;3.05;2.10;;;26.30;88.10;;;;;;4959688;28;20032;-16
2023/08/24 11:37:55;;;;;;;2.55;2.00;;;26.40;87.70;;;;;;4897026;28;20265;-14
2023/08/24 11:40:26;;;;;;;3.60;2.13;;;26.50;87.30;;;;;;4884079;28;20062;-14
2023/08/24 11:42:58;;;;;;;3.08;2.13;;;26.50;87.30;;;;;;4956798;28;20047;-15
2023/08/24 11:45:29;;;;;;;2.72;2.17;;;26.60;87.20;;;;;;4898764;28;20378;-16
2023/08/24 11:47:55;;;;;;;3.53;2.05;;;26.60;87.20;;;;;;4915014;28;20043;-15
2023/08/24 11:50:23;;;;;;;3.55;2.00;;;26.60;86.80;;;;;;4897908;28;20024;-15
2023/08/24 11:52:49;;;;;;;3.93;2.27;;;26.70;86.60;;;;;;4879733;29;20016;-15
2023/08/24 11:55:15;;;;;;;3.80;2.13;;;26.70;86.40;;;;;;4885699;28;20493;-15
2023/08/24 11:57:42;;;;;;;3.22;2.00;;;26.60;86.20;;;;;;4888135;28;20489;-18
2023/08/24 12:00:09;;;;;;;4.47;2.27;;;26.60;86.00;;;;;;4898469;29;20047;-15
2023/08/24 12:02:35;;;;;;;2.80;2.10;;;26.60;86.10;;;;;;4961444;28;20448;-15
2023/08/24 12:05:06;;;;;;;3.35;1.98;;;26.60;86.20;;;;;;4895906;28;20052;-15
2023/08/24 12:07:31;;;;;;;3.55;2.05;;;26.60;86.00;;;;;;4881090;28;20127;-16
2023/08/24 12:10:01;;;;;;;3.13;2.00;;;26.60;86.10;;;;;;4947686;28;20043;-15
2023/08/24 12:12:28;;;;;;;2.63;2.10;;;26.50;85.90;;;;;;4889591;28;20032;-16
2023/08/24 12:14:57;;;;;;;2.95;2.08;;;26.50;85.90;;;;;;4895634;28;20162;-17
2023/08/24 12:17:23;;;;;;;3.92;2.30;;;26.50;85.90;;;;;;4897440;28;20429;-17
2023/08/24 12:20:00;;;;;;;3.20;2.10;;;26.40;85.90;;;;;;4879002;28;20130;-18
2023/08/24 12:22:26;;;;;;;3.50;2.07;;;26.30;85.80;;;;;;4860865;28;20504;-17
2023/08/24 12:24:52;;;;;;;2.78;1.90;;;26.30;86.00;;;;;;4958043;28;20429;-17
2023/08/24 12:27:26;;;;;;;2.35;1.88;;;26.20;85.90;;;;;;4880735;28;20040;-17
2023/08/24 12:29:52;;;;;;;3.00;1.88;;;26.20;86.30;;;;;;4889042;28;20190;-18
2023/08/24 12:32:25;;;;;;;2.70;2.10;;;26.10;86.20;;;;;;4875674;28;20135;-17
2023/08/24 12:34:54;;;;;;;2.70;2.30;;;26.10;86.00;;;;;;4939830;28;21939;-18
2023/08/24 12:37:20;;;;;;;4.43;2.10;;;26.00;85.90;;;;;;4888214;28;20044;-17
2023/08/24 12:39:46;;;;;;;2.60;1.90;;;25.80;85.30;;;;;;4894605;29;20094;-17
2023/08/24 12:42:11;;;;;;;3.28;2.00;;;25.90;85.60;;;;;;4884913;28;20545;-17
2023/08/24 12:44:37;;;;;;;2.42;1.83;;;25.80;85.40;;;;;;4937033;28;20032;-18
2023/08/24 12:47:03;;;;;;;3.80;2.10;;;25.70;85.40;;;;;;4897230;29;20036;-17
2023/08/24 12:49:29;;;;;;;3.60;1.92;;;25.60;85.30;;;;;;4897301;28;20035;-17